sensor_id;sensor_type;location;lat;lon;timestamp;temperature;humidity
22633;DHT22;11483;55.828;37.488;2022-11-14T00:00:25;2.50;99.90
22633;DHT22;11483;55.828;37.488;2022-11-14T00:02:51;2.50;99.90
22633;DHT22;11483;55.828;37.488;2022-11-14T00:05:17;2.50;99.90
22633;DHT22;11483;55.828;37.488;2022-11-14T00:07:43;2.50;99.90
22633;DHT22;11483;55.828;37.488;2022-11-14T00:10:10;2.40;99.90
22633;DHT22;11483;55.828;37.488;2022-11-14T00:12:36;2.40;99.90
22633;DHT22;11483;55.828;37.488;2022-11-14T00:15:03;2.50;99.90
22633;DHT22;11483;55.828;37.488;2022-11-14T00:17:28;2.40;99.90
22633;DHT22;11483;55.828;37.488;2022-11-14T00:19:54;2.40;99.90
22633;DHT22;11483;55.828;37.488;2022-11-14T00:22:20;2.40;99.90
22633;DHT22;11483;55.828;37.488;2022-11-14T00:24:46;2.30;99.90
22633;DHT22;11483;55.828;37.488;2022-11-14T00:27:12;2.40;99.90
22633;DHT22;11483;55.828;37.488;2022-11-14T00:29:38;2.40;99.90
22633;DHT22;11483;55.828;37.488;2022-11-14T00:32:04;2.30;99.90
22633;DHT22;11483;55.828;37.488;2022-11-14T00:34:30;2.30;99.90
22633;DHT22;11483;55.828;37.488;2022-11-14T00:36:56;2.40;99.90
22633;DHT22;11483;55.828;37.488;2022-11-14T00:39:21;2.30;99.90
22633;DHT22;11483;55.828;37.488;2022-11-14T00:41:47;2.30;99.90
22633;DHT22;11483;55.828;37.488;2022-11-14T00:44:13;2.20;99.90
22633;DHT22;11483;55.828;37.488;2022-11-14T00:46:39;2.30;99.90
22633;DHT22;11483;55.828;37.488;2022-11-14T00:49:05;2.20;99.90
22633;DHT22;11483;55.828;37.488;2022-11-14T00:51:31;2.20;99.90
22633;DHT22;11483;55.828;37.488;2022-11-14T00:53:56;2.20;99.90
22633;DHT22;11483;55.828;37.488;2022-11-14T00:56:22;2.20;99.90
22633;DHT22;11483;55.828;37.488;2022-11-14T00:58:48;2.20;99.90
22633;DHT22;11483;55.828;37.488;2022-11-14T01:01:14;2.20;99.90
22633;DHT22;11483;55.828;37.488;2022-11-14T01:03:40;2.10;99.90
22633;DHT22;11483;55.828;37.488;2022-11-14T01:06:07;2.20;99.90
22633;DHT22;11483;55.828;37.488;2022-11-14T01:08:34;2.10;99.90
22633;DHT22;11483;55.828;37.488;2022-11-14T01:11:00;2.00;99.90
22633;DHT22;11483;55.828;37.488;2022-11-14T01:13:30;2.00;99.90
22633;DHT22;11483;55.828;37.488;2022-11-14T01:15:59;1.80;99.90
22633;DHT22;11483;55.828;37.488;2022-11-14T01:18:25;1.90;99.90
22633;DHT22;11483;55.828;37.488;2022-11-14T01:20:51;1.80;99.90
22633;DHT22;11483;55.828;37.488;2022-11-14T01:23:17;1.80;99.90
22633;DHT22;11483;55.828;37.488;2022-11-14T01:25:43;1.90;99.90
22633;DHT22;11483;55.828;37.488;2022-11-14T01:28:14;1.90;99.90
22633;DHT22;11483;55.828;37.488;2022-11-14T01:30:40;1.80;99.90
22633;DHT22;11483;55.828;37.488;2022-11-14T01:33:07;1.80;99.90
22633;DHT22;11483;55.828;37.488;2022-11-14T01:35:34;1.80;99.90
22633;DHT22;11483;55.828;37.488;2022-11-14T01:38:00;1.80;99.90
22633;DHT22;11483;55.828;37.488;2022-11-14T01:40:27;1.80;99.90
22633;DHT22;11483;55.828;37.488;2022-11-14T01:43:29;1.80;99.90
22633;DHT22;11483;55.828;37.488;2022-11-14T01:46:09;1.80;99.90
22633;DHT22;11483;55.828;37.488;2022-11-14T01:53:53;1.70;99.90
22633;DHT22;11483;55.828;37.488;2022-11-14T01:56:24;1.70;99.90
22633;DHT22;11483;55.828;37.488;2022-11-14T01:58:59;1.70;99.90
22633;DHT22;11483;55.828;37.488;2022-11-14T02:01:30;1.60;99.90
22633;DHT22;11483;55.828;37.488;2022-11-14T02:03:59;1.50;99.90
22633;DHT22;11483;55.828;37.488;2022-11-14T02:06:29;1.60;99.90
22633;DHT22;11483;55.828;37.488;2022-11-14T02:08:57;1.60;99.90
22633;DHT22;11483;55.828;37.488;2022-11-14T02:11:28;1.50;99.90
22633;DHT22;11483;55.828;37.488;2022-11-14T02:13:54;1.60;99.90
22633;DHT22;11483;55.828;37.488;2022-11-14T02:16:20;1.60;99.90
22633;DHT22;11483;55.828;37.488;2022-11-14T02:18:46;1.60;99.90
22633;DHT22;11483;55.828;37.488;2022-11-14T02:21:12;1.60;99.90
22633;DHT22;11483;55.828;37.488;2022-11-14T02:23:38;1.60;99.90
22633;DHT22;11483;55.828;37.488;2022-11-14T02:26:03;1.60;99.90
22633;DHT22;11483;55.828;37.488;2022-11-14T02:28:29;1.60;99.90
22633;DHT22;11483;55.828;37.488;2022-11-14T02:30:55;1.40;99.90
22633;DHT22;11483;55.828;37.488;2022-11-14T02:33:21;1.50;99.90
22633;DHT22;11483;55.828;37.488;2022-11-14T02:35:47;1.50;99.90
22633;DHT22;11483;55.828;37.488;2022-11-14T02:38:13;1.50;99.90
22633;DHT22;11483;55.828;37.488;2022-11-14T02:40:39;1.60;99.90
22633;DHT22;11483;55.828;37.488;2022-11-14T02:43:05;1.50;99.90
22633;DHT22;11483;55.828;37.488;2022-11-14T02:45:31;1.60;99.90
22633;DHT22;11483;55.828;37.488;2022-11-14T02:47:57;1.50;99.90
22633;DHT22;11483;55.828;37.488;2022-11-14T02:50:23;1.50;99.90
22633;DHT22;11483;55.828;37.488;2022-11-14T02:52:49;1.40;99.90
22633;DHT22;11483;55.828;37.488;2022-11-14T02:55:14;1.40;99.90
22633;DHT22;11483;55.828;37.488;2022-11-14T02:57:43;1.40;99.90
22633;DHT22;11483;55.828;37.488;2022-11-14T03:00:09;1.40;99.90
22633;DHT22;11483;55.828;37.488;2022-11-14T03:02:35;1.40;99.90
22633;DHT22;11483;55.828;37.488;2022-11-14T03:05:01;1.40;99.90
22633;DHT22;11483;55.828;37.488;2022-11-14T03:07:27;1.30;99.90
22633;DHT22;11483;55.828;37.488;2022-11-14T03:09:52;1.30;99.90
22633;DHT22;11483;55.828;37.488;2022-11-14T03:12:19;1.30;99.90
22633;DHT22;11483;55.828;37.488;2022-11-14T03:14:44;1.30;99.90
22633;DHT22;11483;55.828;37.488;2022-11-14T03:17:11;1.30;99.90
22633;DHT22;11483;55.828;37.488;2022-11-14T03:19:36;1.30;99.90
22633;DHT22;11483;55.828;37.488;2022-11-14T03:22:03;1.50;99.90
22633;DHT22;11483;55.828;37.488;2022-11-14T03:24:29;1.50;99.90
22633;DHT22;11483;55.828;37.488;2022-11-14T03:26:55;1.40;99.90
22633;DHT22;11483;55.828;37.488;2022-11-14T03:29:21;1.50;99.90
22633;DHT22;11483;55.828;37.488;2022-11-14T03:31:46;1.40;99.90
22633;DHT22;11483;55.828;37.488;2022-11-14T03:34:12;1.40;99.90
22633;DHT22;11483;55.828;37.488;2022-11-14T03:36:38;1.30;99.90
22633;DHT22;11483;55.828;37.488;2022-11-14T03:39:04;1.40;99.90
22633;DHT22;11483;55.828;37.488;2022-11-14T03:41:31;1.40;99.90
22633;DHT22;11483;55.828;37.488;2022-11-14T03:43:57;1.50;99.90
22633;DHT22;11483;55.828;37.488;2022-11-14T03:46:23;1.40;99.90
22633;DHT22;11483;55.828;37.488;2022-11-14T03:48:48;1.30;99.90
22633;DHT22;11483;55.828;37.488;2022-11-14T03:51:14;1.40;99.90
22633;DHT22;11483;55.828;37.488;2022-11-14T03:53:40;1.40;99.90
22633;DHT22;11483;55.828;37.488;2022-11-14T03:56:06;1.40;99.90
22633;DHT22;11483;55.828;37.488;2022-11-14T03:58:32;1.30;99.90
22633;DHT22;11483;55.828;37.488;2022-11-14T04:00:57;1.30;99.90
22633;DHT22;11483;55.828;37.488;2022-11-14T04:03:23;1.30;99.90
22633;DHT22;11483;55.828;37.488;2022-11-14T04:05:50;1.40;99.90
22633;DHT22;11483;55.828;37.488;2022-11-14T04:08:16;1.40;99.90
22633;DHT22;11483;55.828;37.488;2022-11-14T04:10:42;1.40;99.90
22633;DHT22;11483;55.828;37.488;2022-11-14T04:13:11;1.50;99.90
22633;DHT22;11483;55.828;37.488;2022-11-14T04:15:36;1.40;99.90
22633;DHT22;11483;55.828;37.488;2022-11-14T04:18:02;1.30;99.90
22633;DHT22;11483;55.828;37.488;2022-11-14T04:20:28;1.40;99.90
22633;DHT22;11483;55.828;37.488;2022-11-14T04:22:54;1.40;99.90
22633;DHT22;11483;55.828;37.488;2022-11-14T04:25:19;1.40;99.90
22633;DHT22;11483;55.828;37.488;2022-11-14T04:27:45;1.30;99.90
22633;DHT22;11483;55.828;37.488;2022-11-14T04:30:11;1.30;99.90
22633;DHT22;11483;55.828;37.488;2022-11-14T04:32:37;1.30;99.90
22633;DHT22;11483;55.828;37.488;2022-11-14T04:35:03;1.30;99.90
22633;DHT22;11483;55.828;37.488;2022-11-14T04:37:29;1.30;99.90
22633;DHT22;11483;55.828;37.488;2022-11-14T04:39:55;1.30;99.90
22633;DHT22;11483;55.828;37.488;2022-11-14T04:42:25;1.20;99.90
22633;DHT22;11483;55.828;37.488;2022-11-14T04:44:51;1.30;99.90
22633;DHT22;11483;55.828;37.488;2022-11-14T04:47:17;1.20;99.90
22633;DHT22;11483;55.828;37.488;2022-11-14T04:49:43;1.10;99.90
22633;DHT22;11483;55.828;37.488;2022-11-14T04:52:09;1.10;99.90
22633;DHT22;11483;55.828;37.488;2022-11-14T04:54:34;1.10;99.90
22633;DHT22;11483;55.828;37.488;2022-11-14T04:57:00;1.00;99.90
22633;DHT22;11483;55.828;37.488;2022-11-14T04:59:26;1.00;99.90
22633;DHT22;11483;55.828;37.488;2022-11-14T05:01:52;1.00;99.90
22633;DHT22;11483;55.828;37.488;2022-11-14T05:04:18;0.90;99.90
22633;DHT22;11483;55.828;37.488;2022-11-14T05:06:44;0.90;99.90
22633;DHT22;11483;55.828;37.488;2022-11-14T05:09:10;0.90;99.90
22633;DHT22;11483;55.828;37.488;2022-11-14T05:11:35;0.80;99.90
22633;DHT22;11483;55.828;37.488;2022-11-14T05:14:01;0.90;99.90
22633;DHT22;11483;55.828;37.488;2022-11-14T05:16:27;0.70;99.90
22633;DHT22;11483;55.828;37.488;2022-11-14T05:18:53;0.70;99.90
22633;DHT22;11483;55.828;37.488;2022-11-14T05:21:19;0.60;99.90
22633;DHT22;11483;55.828;37.488;2022-11-14T05:23:45;0.60;99.90
22633;DHT22;11483;55.828;37.488;2022-11-14T05:26:15;0.50;99.90
22633;DHT22;11483;55.828;37.488;2022-11-14T05:28:41;0.50;99.90
22633;DHT22;11483;55.828;37.488;2022-11-14T05:31:12;0.50;99.90
22633;DHT22;11483;55.828;37.488;2022-11-14T05:33:39;0.50;99.90
22633;DHT22;11483;55.828;37.488;2022-11-14T05:36:08;0.50;99.90
22633;DHT22;11483;55.828;37.488;2022-11-14T05:38:34;0.50;99.90
22633;DHT22;11483;55.828;37.488;2022-11-14T05:41:08;0.40;99.90
22633;DHT22;11483;55.828;37.488;2022-11-14T05:43:35;0.40;99.90
22633;DHT22;11483;55.828;37.488;2022-11-14T05:46:03;0.40;99.90
22633;DHT22;11483;55.828;37.488;2022-11-14T05:48:30;0.40;99.90
22633;DHT22;11483;55.828;37.488;2022-11-14T05:50:57;0.20;99.90
22633;DHT22;11483;55.828;37.488;2022-11-14T05:53:24;0.20;99.90
22633;DHT22;11483;55.828;37.488;2022-11-14T05:55:51;0.10;99.90
22633;DHT22;11483;55.828;37.488;2022-11-14T05:58:17;0.20;99.90
22633;DHT22;11483;55.828;37.488;2022-11-14T06:00:43;0.20;99.90
22633;DHT22;11483;55.828;37.488;2022-11-14T06:03:09;0.20;99.90
22633;DHT22;11483;55.828;37.488;2022-11-14T06:05:35;0.20;99.90
22633;DHT22;11483;55.828;37.488;2022-11-14T06:08:02;0.30;99.90
22633;DHT22;11483;55.828;37.488;2022-11-14T06:10:28;0.20;99.90
22633;DHT22;11483;55.828;37.488;2022-11-14T06:12:54;0.20;99.90
22633;DHT22;11483;55.828;37.488;2022-11-14T06:15:20;0.20;99.90
22633;DHT22;11483;55.828;37.488;2022-11-14T06:17:46;0.20;99.90
22633;DHT22;11483;55.828;37.488;2022-11-14T06:20:12;0.10;99.90
22633;DHT22;11483;55.828;37.488;2022-11-14T06:22:39;0.20;99.90
22633;DHT22;11483;55.828;37.488;2022-11-14T06:25:05;0.20;99.90
22633;DHT22;11483;55.828;37.488;2022-11-14T06:27:31;0.10;99.90
22633;DHT22;11483;55.828;37.488;2022-11-14T06:29:57;0.20;99.90
22633;DHT22;11483;55.828;37.488;2022-11-14T06:32:23;0.20;99.90
22633;DHT22;11483;55.828;37.488;2022-11-14T06:34:49;0.20;99.90
22633;DHT22;11483;55.828;37.488;2022-11-14T06:37:14;0.20;99.90
22633;DHT22;11483;55.828;37.488;2022-11-14T06:39:40;0.30;99.90
22633;DHT22;11483;55.828;37.488;2022-11-14T06:42:06;0.30;99.90
22633;DHT22;11483;55.828;37.488;2022-11-14T06:44:32;0.40;99.90
22633;DHT22;11483;55.828;37.488;2022-11-14T06:46:58;0.30;99.90
22633;DHT22;11483;55.828;37.488;2022-11-14T06:49:24;0.40;99.90
22633;DHT22;11483;55.828;37.488;2022-11-14T06:51:50;0.40;99.90
22633;DHT22;11483;55.828;37.488;2022-11-14T06:54:16;0.40;99.90
22633;DHT22;11483;55.828;37.488;2022-11-14T06:56:42;0.40;99.90
22633;DHT22;11483;55.828;37.488;2022-11-14T06:59:08;0.40;99.90
22633;DHT22;11483;55.828;37.488;2022-11-14T07:01:34;0.40;99.90
22633;DHT22;11483;55.828;37.488;2022-11-14T07:04:00;0.50;99.90
22633;DHT22;11483;55.828;37.488;2022-11-14T07:06:28;0.50;99.90
22633;DHT22;11483;55.828;37.488;2022-11-14T07:08:55;0.60;99.90
22633;DHT22;11483;55.828;37.488;2022-11-14T07:11:24;0.50;99.90
22633;DHT22;11483;55.828;37.488;2022-11-14T07:13:57;0.60;99.90
22633;DHT22;11483;55.828;37.488;2022-11-14T07:16:25;0.60;99.90
22633;DHT22;11483;55.828;37.488;2022-11-14T07:18:54;0.70;99.90
22633;DHT22;11483;55.828;37.488;2022-11-14T07:21:20;0.70;99.90
22633;DHT22;11483;55.828;37.488;2022-11-14T07:23:46;0.60;99.90
22633;DHT22;11483;55.828;37.488;2022-11-14T07:26:12;0.60;99.90
22633;DHT22;11483;55.828;37.488;2022-11-14T07:28:40;0.60;99.90
22633;DHT22;11483;55.828;37.488;2022-11-14T07:31:08;0.60;99.90
22633;DHT22;11483;55.828;37.488;2022-11-14T07:33:37;0.70;99.90
22633;DHT22;11483;55.828;37.488;2022-11-14T07:36:04;0.80;99.90
22633;DHT22;11483;55.828;37.488;2022-11-14T07:38:31;0.70;99.90
22633;DHT22;11483;55.828;37.488;2022-11-14T07:41:02;1.10;99.90
22633;DHT22;11483;55.828;37.488;2022-11-14T07:43:29;1.80;99.90
22633;DHT22;11483;55.828;37.488;2022-11-14T07:45:59;3.20;99.90
22633;DHT22;11483;55.828;37.488;2022-11-14T07:48:26;4.80;99.90
22633;DHT22;11483;55.828;37.488;2022-11-14T07:50:51;6.20;99.90
22633;DHT22;11483;55.828;37.488;2022-11-14T07:53:18;7.60;99.90
22633;DHT22;11483;55.828;37.488;2022-11-14T07:55:44;9.00;99.90
22633;DHT22;11483;55.828;37.488;2022-11-14T07:58:10;9.30;99.90
22633;DHT22;11483;55.828;37.488;2022-11-14T08:00:36;9.50;96.90
22633;DHT22;11483;55.828;37.488;2022-11-14T08:03:02;9.90;93.30
22633;DHT22;11483;55.828;37.488;2022-11-14T08:05:28;9.70;92.40
22633;DHT22;11483;55.828;37.488;2022-11-14T08:07:53;9.40;92.30
22633;DHT22;11483;55.828;37.488;2022-11-14T08:10:19;9.40;93.20
22633;DHT22;11483;55.828;37.488;2022-11-14T08:12:45;9.70;92.20
22633;DHT22;11483;55.828;37.488;2022-11-14T08:15:15;10.20;90.80
22633;DHT22;11483;55.828;37.488;2022-11-14T08:17:42;11.00;90.80
22633;DHT22;11483;55.828;37.488;2022-11-14T08:20:08;12.50;86.60
22633;DHT22;11483;55.828;37.488;2022-11-14T08:22:34;12.80;81.60
22633;DHT22;11483;55.828;37.488;2022-11-14T08:25:00;13.10;78.80
22633;DHT22;11483;55.828;37.488;2022-11-14T08:27:26;13.10;76.80
22633;DHT22;11483;55.828;37.488;2022-11-14T08:29:52;12.70;76.50
22633;DHT22;11483;55.828;37.488;2022-11-14T08:32:19;12.60;76.40
22633;DHT22;11483;55.828;37.488;2022-11-14T08:34:45;12.70;76.30
22633;DHT22;11483;55.828;37.488;2022-11-14T08:37:11;13.20;75.50
22633;DHT22;11483;55.828;37.488;2022-11-14T08:39:37;12.40;72.90
22633;DHT22;11483;55.828;37.488;2022-11-14T08:42:03;12.10;73.80
22633;DHT22;11483;55.828;37.488;2022-11-14T08:44:29;11.40;73.50
22633;DHT22;11483;55.828;37.488;2022-11-14T08:46:55;11.70;74.10
22633;DHT22;11483;55.828;37.488;2022-11-14T08:49:24;11.80;75.10
22633;DHT22;11483;55.828;37.488;2022-11-14T08:51:53;11.90;74.40
22633;DHT22;11483;55.828;37.488;2022-11-14T08:54:20;11.40;74.90
22633;DHT22;11483;55.828;37.488;2022-11-14T08:56:46;11.50;74.70
22633;DHT22;11483;55.828;37.488;2022-11-14T08:59:12;11.50;74.30
22633;DHT22;11483;55.828;37.488;2022-11-14T09:01:38;11.30;75.90
22633;DHT22;11483;55.828;37.488;2022-11-14T09:04:03;10.90;74.40
22633;DHT22;11483;55.828;37.488;2022-11-14T09:06:31;11.10;75.10
22633;DHT22;11483;55.828;37.488;2022-11-14T09:08:57;10.60;76.60
22633;DHT22;11483;55.828;37.488;2022-11-14T09:11:23;10.80;76.90
22633;DHT22;11483;55.828;37.488;2022-11-14T09:13:49;10.50;76.40
22633;DHT22;11483;55.828;37.488;2022-11-14T09:16:15;10.60;77.50
22633;DHT22;11483;55.828;37.488;2022-11-14T09:18:40;10.60;77.10
22633;DHT22;11483;55.828;37.488;2022-11-14T09:21:07;11.40;77.40
22633;DHT22;11483;55.828;37.488;2022-11-14T09:23:34;11.50;74.60
22633;DHT22;11483;55.828;37.488;2022-11-14T09:26:04;11.90;74.50
22633;DHT22;11483;55.828;37.488;2022-11-14T09:28:31;11.60;74.40
22633;DHT22;11483;55.828;37.488;2022-11-14T09:31:06;11.70;74.40
22633;DHT22;11483;55.828;37.488;2022-11-14T09:33:33;12.20;73.40
22633;DHT22;11483;55.828;37.488;2022-11-14T09:36:01;11.90;72.80
22633;DHT22;11483;55.828;37.488;2022-11-14T09:38:27;11.40;74.10
22633;DHT22;11483;55.828;37.488;2022-11-14T09:46:55;11.20;75.80
22633;DHT22;11483;55.828;37.488;2022-11-14T09:54:52;9.90;77.70
22633;DHT22;11483;55.828;37.488;2022-11-14T09:57:20;10.00;78.10
22633;DHT22;11483;55.828;37.488;2022-11-14T09:59:47;10.40;77.60
22633;DHT22;11483;55.828;37.488;2022-11-14T10:11:08;9.30;79.00
22633;DHT22;11483;55.828;37.488;2022-11-14T10:27:06;9.00;81.80
22633;DHT22;11483;55.828;37.488;2022-11-14T10:37:35;10.10;81.60
22633;DHT22;11483;55.828;37.488;2022-11-14T10:40:36;10.10;80.10
22633;DHT22;11483;55.828;37.488;2022-11-14T10:43:29;9.30;79.60
22633;DHT22;11483;55.828;37.488;2022-11-14T10:48:47;7.50;86.10
22633;DHT22;11483;55.828;37.488;2022-11-14T10:51:41;7.80;86.60
22633;DHT22;11483;55.828;37.488;2022-11-14T10:54:30;7.70;85.30
22633;DHT22;11483;55.828;37.488;2022-11-14T10:56:57;7.30;87.20
22633;DHT22;11483;55.828;37.488;2022-11-14T10:59:22;7.50;87.50
22633;DHT22;11483;55.828;37.488;2022-11-14T11:04:42;7.70;89.10
22633;DHT22;11483;55.828;37.488;2022-11-14T11:09:38;7.70;90.40
22633;DHT22;11483;55.828;37.488;2022-11-14T11:15:14;7.50;89.90
22633;DHT22;11483;55.828;37.488;2022-11-14T11:20:37;7.80;86.40
22633;DHT22;11483;55.828;37.488;2022-11-14T11:23:19;7.90;85.60
22633;DHT22;11483;55.828;37.488;2022-11-14T11:25:58;7.60;87.30
22633;DHT22;11483;55.828;37.488;2022-11-14T11:28:24;7.80;88.60
22633;DHT22;11483;55.828;37.488;2022-11-14T11:30:56;7.80;87.40
22633;DHT22;11483;55.828;37.488;2022-11-14T11:33:29;7.90;86.30
22633;DHT22;11483;55.828;37.488;2022-11-14T11:36:10;7.70;86.00
22633;DHT22;11483;55.828;37.488;2022-11-14T11:38:36;7.90;87.80
22633;DHT22;11483;55.828;37.488;2022-11-14T11:44:10;8.30;84.80
22633;DHT22;11483;55.828;37.488;2022-11-14T11:49:25;7.70;85.30
22633;DHT22;11483;55.828;37.488;2022-11-14T11:51:54;7.30;85.80
22633;DHT22;11483;55.828;37.488;2022-11-14T11:54:25;7.20;87.50
22633;DHT22;11483;55.828;37.488;2022-11-14T11:56:54;7.30;86.50
22633;DHT22;11483;55.828;37.488;2022-11-14T11:59:34;7.50;86.80
22633;DHT22;11483;55.828;37.488;2022-11-14T12:02:16;7.60;87.70
22633;DHT22;11483;55.828;37.488;2022-11-14T12:04:44;7.80;87.00
22633;DHT22;11483;55.828;37.488;2022-11-14T12:07:19;7.60;86.60
22633;DHT22;11483;55.828;37.488;2022-11-14T12:09:46;7.20;86.30
22633;DHT22;11483;55.828;37.488;2022-11-14T12:12:44;6.30;90.20
22633;DHT22;11483;55.828;37.488;2022-11-14T12:15:34;6.40;90.30
22633;DHT22;11483;55.828;37.488;2022-11-14T12:24:01;6.00;90.50
22633;DHT22;11483;55.828;37.488;2022-11-14T12:26:52;5.40;91.80
22633;DHT22;11483;55.828;37.488;2022-11-14T12:29:33;5.20;93.30
22633;DHT22;11483;55.828;37.488;2022-11-14T12:32:09;5.30;93.50
22633;DHT22;11483;55.828;37.488;2022-11-14T12:34:39;5.60;93.80
22633;DHT22;11483;55.828;37.488;2022-11-14T12:37:19;5.80;93.30
22633;DHT22;11483;55.828;37.488;2022-11-14T12:39:56;5.90;93.60
22633;DHT22;11483;55.828;37.488;2022-11-14T12:42:23;5.90;92.50
22633;DHT22;11483;55.828;37.488;2022-11-14T12:44:52;5.70;92.60
22633;DHT22;11483;55.828;37.488;2022-11-14T12:47:20;5.70;93.70
22633;DHT22;11483;55.828;37.488;2022-11-14T13:00:29;4.50;96.00
22633;DHT22;11483;55.828;37.488;2022-11-14T13:05:58;3.80;98.50
22633;DHT22;11483;55.828;37.488;2022-11-14T13:08:42;3.60;99.90
22633;DHT22;11483;55.828;37.488;2022-11-14T13:14:17;3.50;99.90
22633;DHT22;11483;55.828;37.488;2022-11-14T13:17:28;3.40;99.90
22633;DHT22;11483;55.828;37.488;2022-11-14T13:20:31;3.20;99.90
22633;DHT22;11483;55.828;37.488;2022-11-14T13:28:46;2.30;99.90
22633;DHT22;11483;55.828;37.488;2022-11-14T13:36:57;2.00;99.90
22633;DHT22;11483;55.828;37.488;2022-11-14T13:44:59;1.70;99.90
22633;DHT22;11483;55.828;37.488;2022-11-14T13:47:57;1.70;99.90
22633;DHT22;11483;55.828;37.488;2022-11-14T13:50:30;1.60;99.90
22633;DHT22;11483;55.828;37.488;2022-11-14T13:52:58;1.60;99.90
22633;DHT22;11483;55.828;37.488;2022-11-14T13:55:37;1.70;99.90
22633;DHT22;11483;55.828;37.488;2022-11-14T14:06:15;1.40;99.90
22633;DHT22;11483;55.828;37.488;2022-11-14T14:09:14;1.40;99.90
22633;DHT22;11483;55.828;37.488;2022-11-14T14:17:26;1.30;99.90
22633;DHT22;11483;55.828;37.488;2022-11-14T14:28:24;1.10;99.90
22633;DHT22;11483;55.828;37.488;2022-11-14T14:33:43;1.10;99.90
22633;DHT22;11483;55.828;37.488;2022-11-14T14:36:21;1.00;99.90
22633;DHT22;11483;55.828;37.488;2022-11-14T14:38:48;1.00;99.90
22633;DHT22;11483;55.828;37.488;2022-11-14T14:41:17;1.10;99.90
22633;DHT22;11483;55.828;37.488;2022-11-14T14:43:53;1.00;99.90
22633;DHT22;11483;55.828;37.488;2022-11-14T14:46:28;1.10;99.90
22633;DHT22;11483;55.828;37.488;2022-11-14T14:48:54;1.00;99.90
22633;DHT22;11483;55.828;37.488;2022-11-14T14:51:32;1.10;99.90
22633;DHT22;11483;55.828;37.488;2022-11-14T14:53:58;1.20;99.90
22633;DHT22;11483;55.828;37.488;2022-11-14T14:56:25;1.20;99.90
22633;DHT22;11483;55.828;37.488;2022-11-14T14:58:51;1.20;99.90
22633;DHT22;11483;55.828;37.488;2022-11-14T15:01:36;1.20;99.90
22633;DHT22;11483;55.828;37.488;2022-11-14T15:04:07;1.30;99.90
22633;DHT22;11483;55.828;37.488;2022-11-14T15:06:37;1.30;99.90
22633;DHT22;11483;55.828;37.488;2022-11-14T15:09:07;1.30;99.90
22633;DHT22;11483;55.828;37.488;2022-11-14T15:11:36;1.20;99.90
22633;DHT22;11483;55.828;37.488;2022-11-14T15:14:04;1.20;99.90
22633;DHT22;11483;55.828;37.488;2022-11-14T15:16:31;1.30;99.90
22633;DHT22;11483;55.828;37.488;2022-11-14T15:18:58;1.30;99.90
22633;DHT22;11483;55.828;37.488;2022-11-14T15:21:26;1.30;99.90
22633;DHT22;11483;55.828;37.488;2022-11-14T15:24:00;1.40;99.90
22633;DHT22;11483;55.828;37.488;2022-11-14T15:26:26;1.40;99.90
22633;DHT22;11483;55.828;37.488;2022-11-14T15:29:23;1.40;99.90
22633;DHT22;11483;55.828;37.488;2022-11-14T15:31:55;1.40;99.90
22633;DHT22;11483;55.828;37.488;2022-11-14T15:34:36;1.50;99.90
22633;DHT22;11483;55.828;37.488;2022-11-14T15:39:44;1.50;99.90
22633;DHT22;11483;55.828;37.488;2022-11-14T15:42:30;1.50;99.90
22633;DHT22;11483;55.828;37.488;2022-11-14T15:44:56;1.50;99.90
22633;DHT22;11483;55.828;37.488;2022-11-14T15:47:39;1.50;99.90
22633;DHT22;11483;55.828;37.488;2022-11-14T15:52:39;1.50;99.90
22633;DHT22;11483;55.828;37.488;2022-11-14T15:55:21;1.50;99.90
22633;DHT22;11483;55.828;37.488;2022-11-14T15:57:48;1.50;99.90
22633;DHT22;11483;55.828;37.488;2022-11-14T16:00:16;1.60;99.90
22633;DHT22;11483;55.828;37.488;2022-11-14T16:02:45;1.60;99.90
22633;DHT22;11483;55.828;37.488;2022-11-14T16:05:13;1.60;99.90
22633;DHT22;11483;55.828;37.488;2022-11-14T16:07:39;1.60;99.90
22633;DHT22;11483;55.828;37.488;2022-11-14T16:10:16;1.70;99.90
22633;DHT22;11483;55.828;37.488;2022-11-14T16:12:42;1.60;99.90
22633;DHT22;11483;55.828;37.488;2022-11-14T16:15:09;1.60;99.90
22633;DHT22;11483;55.828;37.488;2022-11-14T16:17:42;1.60;99.90
22633;DHT22;11483;55.828;37.488;2022-11-14T16:20:18;1.60;99.90
22633;DHT22;11483;55.828;37.488;2022-11-14T16:22:45;1.60;99.90
22633;DHT22;11483;55.828;37.488;2022-11-14T16:25:32;1.60;99.90
22633;DHT22;11483;55.828;37.488;2022-11-14T16:27:58;1.70;99.90
22633;DHT22;11483;55.828;37.488;2022-11-14T16:30:24;1.70;99.90
22633;DHT22;11483;55.828;37.488;2022-11-14T16:32:51;1.60;99.90
22633;DHT22;11483;55.828;37.488;2022-11-14T16:35:23;1.50;99.90
22633;DHT22;11483;55.828;37.488;2022-11-14T16:37:50;1.50;99.90
22633;DHT22;11483;55.828;37.488;2022-11-14T16:42:47;1.60;99.90
22633;DHT22;11483;55.828;37.488;2022-11-14T16:45:14;1.60;99.90
22633;DHT22;11483;55.828;37.488;2022-11-14T16:47:41;1.50;99.90
22633;DHT22;11483;55.828;37.488;2022-11-14T16:50:07;1.60;99.90
22633;DHT22;11483;55.828;37.488;2022-11-14T16:52:33;1.60;99.90
22633;DHT22;11483;55.828;37.488;2022-11-14T16:54:59;1.50;99.90
22633;DHT22;11483;55.828;37.488;2022-11-14T16:57:25;1.50;99.90
22633;DHT22;11483;55.828;37.488;2022-11-14T16:59:51;1.50;99.90
22633;DHT22;11483;55.828;37.488;2022-11-14T17:02:17;1.60;99.90
22633;DHT22;11483;55.828;37.488;2022-11-14T17:04:43;1.50;99.90
22633;DHT22;11483;55.828;37.488;2022-11-14T17:07:13;1.50;99.90
22633;DHT22;11483;55.828;37.488;2022-11-14T17:09:38;1.60;99.90
22633;DHT22;11483;55.828;37.488;2022-11-14T17:12:05;1.60;99.90
22633;DHT22;11483;55.828;37.488;2022-11-14T17:14:31;1.60;99.90
22633;DHT22;11483;55.828;37.488;2022-11-14T17:16:57;1.60;99.90
22633;DHT22;11483;55.828;37.488;2022-11-14T17:19:23;1.70;99.90
22633;DHT22;11483;55.828;37.488;2022-11-14T17:21:49;1.60;99.90
22633;DHT22;11483;55.828;37.488;2022-11-14T17:24:15;1.60;99.90
22633;DHT22;11483;55.828;37.488;2022-11-14T17:26:40;1.70;99.90
22633;DHT22;11483;55.828;37.488;2022-11-14T17:29:07;1.60;99.90
22633;DHT22;11483;55.828;37.488;2022-11-14T17:31:33;1.60;99.90
22633;DHT22;11483;55.828;37.488;2022-11-14T17:34:00;1.60;99.90
22633;DHT22;11483;55.828;37.488;2022-11-14T17:36:28;1.60;99.90
22633;DHT22;11483;55.828;37.488;2022-11-14T17:38:56;1.60;99.90
22633;DHT22;11483;55.828;37.488;2022-11-14T17:41:22;1.60;99.90
22633;DHT22;11483;55.828;37.488;2022-11-14T17:43:52;1.60;99.90
22633;DHT22;11483;55.828;37.488;2022-11-14T17:46:23;1.70;99.90
22633;DHT22;11483;55.828;37.488;2022-11-14T17:48:50;1.60;99.90
22633;DHT22;11483;55.828;37.488;2022-11-14T17:51:16;1.60;99.90
22633;DHT22;11483;55.828;37.488;2022-11-14T17:53:42;1.60;99.90
22633;DHT22;11483;55.828;37.488;2022-11-14T17:56:19;1.70;99.90
22633;DHT22;11483;55.828;37.488;2022-11-14T17:58:46;1.70;99.90